Time;durP1;ratioP1;P1;durP2;ratioP2;P2;SDS_P1;SDS_P2;PMS_P1;PMS_P2;Temp;Humidity;BMP_temperature;BMP_pressure;BME280_temperature;BME280_humidity;BME280_pressure;Samples;Min_cycle;Max_cycle;Signal;HPM_P1;HPM_P2
2024/02/12 00:01:37;;;;;;;5.03;3.40;;;9.60;99.90;;;;;;5031048;28;20429;-70
2024/02/12 00:04:03;;;;;;;4.83;3.03;;;9.60;99.90;;;;;;5030979;28;20471;-67
2024/02/12 00:06:29;;;;;;;3.13;2.83;;;9.60;99.90;;;;;;5029132;28;20432;-68
2024/02/12 00:08:55;;;;;;;3.87;2.90;;;9.60;99.90;;;;;;5032068;28;20439;-68
2024/02/12 00:11:21;;;;;;;3.87;3.40;;;9.60;99.90;;;;;;5029670;28;20190;-66
2024/02/12 00:13:47;;;;;;;4.90;3.50;;;9.70;99.90;;;;;;5031910;28;20439;-67
2024/02/12 00:16:12;;;;;;;6.77;4.87;;;9.70;99.90;;;;;;5030480;28;20190;-70
2024/02/12 00:18:38;;;;;;;8.60;5.87;;;9.70;99.90;;;;;;5030786;28;20286;-72
2024/02/12 00:21:05;;;;;;;8.53;6.07;;;9.70;99.90;;;;;;5031489;28;20197;-70
2024/02/12 00:23:31;;;;;;;6.40;5.50;;;9.60;99.90;;;;;;5030057;28;20222;-71
2024/02/12 00:25:56;;;;;;;8.57;6.53;;;9.70;99.90;;;;;;5030820;28;21307;-69
2024/02/12 00:28:22;;;;;;;7.10;5.50;;;9.60;99.90;;;;;;5029065;28;20186;-72
2024/02/12 00:30:48;;;;;;;8.00;6.57;;;9.60;99.90;;;;;;5030767;28;20549;-68
2024/02/12 00:33:14;;;;;;;7.87;6.10;;;9.60;99.90;;;;;;5031062;28;20438;-71
2024/02/12 00:35:41;;;;;;;9.33;6.43;;;9.60;99.90;;;;;;5030246;28;20428;-74
2024/02/12 00:38:07;;;;;;;7.70;5.87;;;9.60;99.90;;;;;;5031850;28;20636;-68
2024/02/12 00:40:34;;;;;;;10.27;5.60;;;9.60;99.90;;;;;;5028837;28;20427;-70
2024/02/12 00:43:00;;;;;;;8.53;7.00;;;9.70;99.90;;;;;;5029698;28;20823;-69
2024/02/12 00:45:27;;;;;;;7.63;6.03;;;9.60;99.90;;;;;;5029427;28;20432;-72
2024/02/12 00:47:55;;;;;;;9.33;7.50;;;9.60;99.90;;;;;;5028373;28;20543;-70
2024/02/12 00:50:22;;;;;;;10.87;8.07;;;9.60;99.90;;;;;;5029866;28;20444;-67
2024/02/12 00:52:49;;;;;;;9.57;7.07;;;9.60;99.90;;;;;;5030822;28;20530;-70
2024/02/12 00:55:15;;;;;;;11.63;8.70;;;9.60;99.90;;;;;;5030011;28;20433;-67
2024/02/12 00:57:43;;;;;;;9.57;7.43;;;9.60;99.90;;;;;;5029533;28;20916;-69
2024/02/12 01:00:14;;;;;;;12.40;9.20;;;9.60;99.90;;;;;;5030782;28;20448;-72
2024/02/12 01:02:44;;;;;;;13.20;8.53;;;9.60;99.90;;;;;;5029070;28;20526;-71
2024/02/12 01:05:10;;;;;;;11.33;8.33;;;9.60;99.90;;;;;;5031592;28;20432;-67
2024/02/12 01:07:40;;;;;;;13.77;9.47;;;9.60;99.90;;;;;;5029528;28;20429;-67
2024/02/12 01:10:08;;;;;;;13.53;9.40;;;9.60;99.90;;;;;;5032313;28;20464;-71
2024/02/12 01:12:35;;;;;;;14.33;9.83;;;9.60;99.90;;;;;;5028810;28;20455;-71
2024/02/12 01:15:00;;;;;;;14.17;10.37;;;9.60;99.90;;;;;;5031744;28;20420;-72
2024/02/12 01:17:29;;;;;;;16.20;11.50;;;9.60;99.90;;;;;;5028266;28;20802;-67
2024/02/12 01:19:55;;;;;;;12.23;9.80;;;9.60;99.90;;;;;;5030762;28;20190;-72
2024/02/12 01:22:21;;;;;;;13.37;10.40;;;9.60;99.90;;;;;;5029239;28;20429;-67
2024/02/12 01:24:49;;;;;;;15.23;11.70;;;9.60;99.90;;;;;;5031302;28;20425;-70
2024/02/12 01:27:14;;;;;;;14.93;10.97;;;9.60;99.90;;;;;;5029514;28;20186;-68
2024/02/12 01:29:48;;;;;;;12.90;10.67;;;9.60;99.90;;;;;;5028166;28;20839;-65
2024/02/12 01:32:15;;;;;;;13.87;11.17;;;9.60;99.90;;;;;;5028382;28;20186;-72
2024/02/12 01:34:43;;;;;;;13.57;11.00;;;9.60;99.90;;;;;;5030210;28;20432;-69
2024/02/12 01:37:09;;;;;;;12.90;11.20;;;9.60;99.90;;;;;;5030294;28;20433;-74
2024/02/12 01:39:35;;;;;;;14.60;10.17;;;9.60;99.90;;;;;;5029701;28;20421;-71
2024/02/12 01:42:12;;;;;;;15.10;11.03;;;9.60;99.90;;;;;;5030485;28;20537;-68
2024/02/12 01:45:02;;;;;;;13.20;10.00;;;9.60;99.90;;;;;;5029846;28;20559;-69
2024/02/12 01:47:32;;;;;;;14.17;10.33;;;9.60;99.90;;;;;;5030051;28;20958;-74
2024/02/12 01:49:57;;;;;;;11.70;9.47;;;9.60;99.90;;;;;;5030708;28;20452;-71
2024/02/12 01:52:26;;;;;;;16.10;10.37;;;9.60;99.90;;;;;;5030019;28;20439;-67
2024/02/12 01:54:53;;;;;;;15.97;9.97;;;9.60;99.90;;;;;;5030045;28;20636;-65
2024/02/12 01:57:19;;;;;;;12.23;9.90;;;9.50;99.90;;;;;;5012884;28;20489;-69
2024/02/12 01:59:45;;;;;;;13.80;9.90;;;9.50;99.90;;;;;;5030130;28;20490;-70
2024/02/12 02:02:14;;;;;;;12.33;10.20;;;9.50;99.90;;;;;;5030134;28;20483;-70
2024/02/12 02:04:42;;;;;;;12.97;10.70;;;9.50;99.90;;;;;;5029859;28;20212;-70
2024/02/12 02:07:19;;;;;;;11.73;9.10;;;9.50;99.90;;;;;;5029630;28;20453;-66
2024/02/12 02:09:46;;;;;;;17.33;10.67;;;9.60;99.90;;;;;;5029115;28;20487;-69
2024/02/12 02:12:13;;;;;;;15.80;11.33;;;9.50;99.90;;;;;;5029455;28;20446;-66
2024/02/12 02:14:39;;;;;;;14.00;10.33;;;9.50;99.90;;;;;;5029683;28;20429;-66
2024/02/12 02:17:05;;;;;;;13.93;11.20;;;9.50;99.90;;;;;;5028014;28;20424;-67
2024/02/12 02:19:31;;;;;;;13.07;10.60;;;9.50;99.90;;;;;;5029910;28;20563;-68
2024/02/12 02:21:57;;;;;;;14.97;11.97;;;9.50;99.90;;;;;;5028050;28;20516;-70
2024/02/12 02:24:22;;;;;;;15.43;11.87;;;9.50;99.90;;;;;;5029485;28;20834;-67
2024/02/12 02:26:48;;;;;;;17.60;11.97;;;9.50;99.90;;;;;;5029767;28;20426;-73
2024/02/12 02:29:14;;;;;;;15.83;11.67;;;9.50;99.90;;;;;;5026575;28;20193;-71
2024/02/12 02:31:39;;;;;;;17.43;12.57;;;9.50;99.90;;;;;;5027834;28;20201;-70
2024/02/12 02:34:05;;;;;;;17.00;12.73;;;9.50;99.90;;;;;;5029869;28;20271;-68
2024/02/12 02:36:34;;;;;;;15.57;12.20;;;9.50;99.90;;;;;;5029165;28;20224;-66
2024/02/12 02:39:02;;;;;;;16.67;11.77;;;9.60;99.90;;;;;;5030155;28;20231;-68
2024/02/12 02:41:28;;;;;;;23.03;13.30;;;9.60;99.90;;;;;;5029823;28;20549;-70
2024/02/12 02:43:54;;;;;;;17.13;13.20;;;9.60;99.90;;;;;;5028898;28;20582;-68
2024/02/12 02:46:26;;;;;;;21.70;14.27;;;9.60;99.90;;;;;;5028592;28;20445;-73
2024/02/12 02:48:58;;;;;;;18.37;13.07;;;9.60;99.90;;;;;;5029363;28;20186;-73
2024/02/12 02:51:27;;;;;;;18.83;14.23;;;9.60;99.90;;;;;;5030052;28;20440;-70
2024/02/12 02:53:54;;;;;;;20.47;13.73;;;9.50;99.90;;;;;;5030559;28;20537;-70
2024/02/12 02:56:21;;;;;;;19.03;14.80;;;9.50;99.90;;;;;;5028829;28;20957;-65
2024/02/12 02:58:47;;;;;;;19.97;14.63;;;9.50;99.90;;;;;;5030282;28;20818;-68
2024/02/12 03:01:13;;;;;;;21.73;13.80;;;9.50;99.90;;;;;;5029998;28;20429;-70
2024/02/12 03:03:39;;;;;;;19.63;14.60;;;9.50;99.90;;;;;;5030695;28;20463;-68
2024/02/12 03:06:05;;;;;;;25.73;16.90;;;9.50;99.90;;;;;;5030478;28;20424;-69
2024/02/12 03:08:35;;;;;;;21.73;14.67;;;9.50;99.90;;;;;;5034839;28;20180;-70
2024/02/12 03:11:01;;;;;;;18.73;15.30;;;9.50;99.90;;;;;;5032941;28;20923;-69
2024/02/12 03:13:30;;;;;;;22.50;15.93;;;9.50;99.90;;;;;;5034474;28;20519;-70
2024/02/12 03:15:56;;;;;;;18.70;14.87;;;9.50;99.90;;;;;;5032698;28;20428;-71
2024/02/12 03:18:22;;;;;;;19.20;15.50;;;9.50;99.90;;;;;;5034326;28;20436;-71
2024/02/12 03:20:49;;;;;;;24.27;16.77;;;9.50;99.90;;;;;;5033697;28;20440;-71
2024/02/12 03:23:15;;;;;;;23.60;17.37;;;9.50;99.90;;;;;;5033870;28;20222;-67
2024/02/12 03:25:41;;;;;;;21.97;16.60;;;9.50;99.90;;;;;;5033652;28;20425;-68
2024/02/12 03:28:07;;;;;;;23.10;16.03;;;9.50;99.90;;;;;;5032643;28;20977;-68
2024/02/12 03:30:32;;;;;;;23.10;17.13;;;9.50;99.90;;;;;;5033719;28;20511;-67
2024/02/12 03:33:02;;;;;;;26.40;17.00;;;9.50;99.90;;;;;;5032549;28;20239;-68
2024/02/12 03:35:28;;;;;;;28.60;18.50;;;9.50;99.90;;;;;;5033318;28;20186;-71
2024/02/12 03:37:54;;;;;;;29.80;19.77;;;9.50;99.90;;;;;;5033564;28;20429;-71
2024/02/12 03:40:22;;;;;;;23.63;17.50;;;9.50;99.90;;;;;;5034044;28;20451;-68
2024/02/12 03:42:51;;;;;;;26.90;18.40;;;9.50;99.90;;;;;;5033281;28;20224;-66
2024/02/12 03:45:18;;;;;;;27.40;19.00;;;9.50;99.90;;;;;;5033593;28;20446;-65
2024/02/12 03:47:46;;;;;;;26.57;18.70;;;9.50;99.90;;;;;;5033002;28;20506;-67
2024/02/12 04:01:22;;;;;;;29.37;18.77;;;9.50;99.90;;;;;;5032524;28;20617;-70
2024/02/12 04:03:49;;;;;;;28.00;18.73;;;9.50;99.90;;;;;;5033466;28;20476;-69
2024/02/12 04:06:18;;;;;;;32.60;21.50;;;9.50;99.90;;;;;;5032310;28;20195;-68
2024/02/12 04:08:45;;;;;;;30.70;18.40;;;9.50;99.90;;;;;;5033878;28;20425;-68
2024/02/12 04:11:11;;;;;;;31.23;20.00;;;9.50;99.90;;;;;;5032124;28;20433;-66
2024/02/12 04:13:38;;;;;;;27.80;18.93;;;9.40;99.90;;;;;;5033629;28;20934;-66
2024/02/12 04:16:09;;;;;;;32.13;20.90;;;9.40;99.90;;;;;;5032078;28;20448;-67
2024/02/12 04:18:34;;;;;;;24.70;18.10;;;9.40;99.90;;;;;;5033022;28;20433;-66
2024/02/12 04:21:08;;;;;;;30.07;19.80;;;9.50;99.90;;;;;;5064285;28;20437;-70
2024/02/12 04:23:37;;;;;;;30.77;20.10;;;9.40;99.90;;;;;;5033791;28;20401;-72
2024/02/12 04:26:06;;;;;;;25.73;17.70;;;9.40;99.90;;;;;;5032917;28;20974;-71
2024/02/12 04:28:32;;;;;;;27.73;18.47;;;9.40;99.90;;;;;;5031656;28;20795;-68
2024/02/12 04:30:58;;;;;;;32.97;19.97;;;9.40;99.90;;;;;;5032040;28;20447;-69
2024/02/12 04:33:24;;;;;;;27.90;18.93;;;9.40;99.90;;;;;;5032667;28;20425;-67
2024/02/12 04:35:50;;;;;;;28.87;18.20;;;9.40;99.90;;;;;;5032419;28;20710;-69
2024/02/12 04:38:16;;;;;;;28.67;19.00;;;9.40;99.90;;;;;;5032385;28;20315;-67
2024/02/12 04:40:42;;;;;;;27.30;18.60;;;9.40;99.90;;;;;;5031952;28;20854;-64
2024/02/12 04:43:08;;;;;;;24.63;16.87;;;9.40;99.90;;;;;;5032627;28;20274;-70
2024/02/12 04:45:33;;;;;;;28.30;17.30;;;9.30;99.90;;;;;;5031396;28;20433;-65
2024/02/12 04:47:59;;;;;;;21.60;15.27;;;9.30;99.90;;;;;;5031932;28;20350;-71
2024/02/12 04:50:25;;;;;;;21.90;16.00;;;9.30;99.90;;;;;;5031697;28;20186;-66
2024/02/12 04:52:51;;;;;;;20.57;15.30;;;9.20;99.90;;;;;;5032447;28;20189;-68
2024/02/12 04:55:17;;;;;;;23.73;15.70;;;9.30;99.90;;;;;;5031849;28;21040;-67
2024/02/12 04:57:43;;;;;;;23.13;15.80;;;9.30;99.90;;;;;;5032374;28;20433;-68
2024/02/12 05:00:10;;;;;;;21.73;14.17;;;9.30;99.90;;;;;;5032025;28;21009;-67
2024/02/12 05:02:42;;;;;;;17.50;12.57;;;9.30;99.90;;;;;;5031471;28;20177;-66
2024/02/12 05:05:11;;;;;;;19.10;12.53;;;9.30;99.90;;;;;;5031558;28;21031;-68
2024/02/12 05:07:37;;;;;;;17.23;12.40;;;9.30;99.90;;;;;;5031239;28;20468;-67
2024/02/12 05:10:03;;;;;;;15.50;11.73;;;9.30;99.90;;;;;;5031940;28;20583;-70
2024/02/12 05:12:29;;;;;;;16.53;12.57;;;9.20;99.90;;;;;;5031750;28;20431;-66
2024/02/12 05:14:56;;;;;;;16.30;11.30;;;9.20;99.90;;;;;;5032188;28;20434;-68
2024/02/12 05:17:28;;;;;;;15.87;12.10;;;9.30;99.90;;;;;;5030192;28;20487;-68
2024/02/12 05:22:39;;;;;;;21.63;13.23;;;9.20;99.90;;;;;;5031834;28;20428;-72
2024/02/12 05:25:05;;;;;;;17.67;12.70;;;9.20;99.90;;;;;;5030848;28;20440;-68
2024/02/12 05:27:31;;;;;;;22.17;11.87;;;9.20;99.90;;;;;;5032116;28;20425;-67
2024/02/12 05:29:58;;;;;;;23.43;14.10;;;9.20;99.90;;;;;;5013239;28;20194;-71
2024/02/12 05:32:23;;;;;;;22.27;11.90;;;9.30;99.90;;;;;;5031068;28;21219;-68
2024/02/12 05:34:50;;;;;;;19.30;12.60;;;9.20;99.90;;;;;;5030653;28;20539;-67
2024/02/12 05:37:16;;;;;;;19.33;11.63;;;9.30;99.90;;;;;;5029931;28;20502;-70
2024/02/12 05:39:45;;;;;;;17.30;12.30;;;9.20;99.90;;;;;;5031573;28;20429;-67
2024/02/12 05:42:10;;;;;;;18.77;12.90;;;9.30;99.90;;;;;;5030827;28;20189;-68
2024/02/12 05:44:36;;;;;;;19.67;12.20;;;9.20;99.90;;;;;;5031587;28;20509;-67
2024/02/12 05:47:03;;;;;;;16.83;12.27;;;9.30;99.90;;;;;;5030693;28;20206;-70
2024/02/12 05:49:33;;;;;;;21.87;13.57;;;9.30;99.90;;;;;;5031338;28;20177;-70
2024/02/12 05:51:59;;;;;;;21.93;14.60;;;9.30;99.90;;;;;;5029251;28;20440;-67
2024/02/12 05:54:29;;;;;;;21.80;14.50;;;9.30;99.90;;;;;;5022855;28;21112;-65
2024/02/12 05:56:54;;;;;;;21.33;14.60;;;9.20;99.90;;;;;;5028923;28;20436;-67
2024/02/12 05:59:20;;;;;;;22.00;16.10;;;9.20;99.90;;;;;;5027336;28;20449;-71
2024/02/12 06:01:46;;;;;;;23.43;15.20;;;9.20;99.90;;;;;;5026613;28;20185;-70
2024/02/12 06:04:12;;;;;;;27.50;16.47;;;9.20;99.90;;;;;;5029583;28;20300;-69
2024/02/12 06:06:39;;;;;;;24.67;18.53;;;9.20;99.90;;;;;;5030215;28;20443;-70
2024/02/12 06:09:05;;;;;;;28.00;17.93;;;9.20;99.90;;;;;;5031186;28;20479;-67
2024/02/12 06:11:31;;;;;;;25.57;17.07;;;9.20;99.90;;;;;;5030537;28;20428;-69
2024/02/12 06:13:57;;;;;;;29.30;16.80;;;9.10;99.90;;;;;;5031187;28;20493;-68
2024/02/12 06:16:23;;;;;;;31.53;17.00;;;9.10;99.90;;;;;;5029445;28;20182;-71
2024/02/12 06:18:51;;;;;;;29.17;17.47;;;9.10;99.90;;;;;;5028965;28;20443;-70
2024/02/12 06:21:17;;;;;;;28.33;18.67;;;9.10;99.90;;;;;;5027967;28;20437;-68
2024/02/12 06:23:43;;;;;;;30.67;19.07;;;9.10;99.90;;;;;;5028474;28;20480;-67
2024/02/12 06:26:10;;;;;;;26.10;17.60;;;9.10;99.90;;;;;;5028270;28;20432;-67
2024/02/12 06:28:36;;;;;;;25.13;16.57;;;9.10;99.90;;;;;;5027861;28;20465;-69
2024/02/12 06:31:02;;;;;;;24.87;16.90;;;9.10;99.90;;;;;;5030479;28;20536;-69
2024/02/12 06:33:27;;;;;;;29.93;17.57;;;9.10;99.90;;;;;;5029330;28;20573;-66
2024/02/12 06:35:53;;;;;;;27.80;17.70;;;9.10;99.90;;;;;;5030553;28;20560;-68
2024/02/12 06:38:19;;;;;;;26.73;17.47;;;9.10;99.90;;;;;;5029766;28;20276;-71
2024/02/12 06:40:45;;;;;;;29.57;19.37;;;9.00;99.90;;;;;;5030167;28;21115;-67
2024/02/12 06:43:11;;;;;;;28.90;18.23;;;9.10;99.90;;;;;;5030915;28;20205;-69
2024/02/12 06:45:36;;;;;;;28.67;19.40;;;9.10;99.90;;;;;;5028807;28;20269;-66
2024/02/12 06:48:03;;;;;;;32.30;19.17;;;9.00;99.90;;;;;;5029013;28;20882;-66
2024/02/12 06:50:29;;;;;;;27.80;18.33;;;9.00;99.90;;;;;;5029779;28;20215;-72
2024/02/12 06:52:55;;;;;;;28.57;19.13;;;9.00;99.90;;;;;;5030936;28;20449;-71
2024/02/12 06:55:21;;;;;;;32.97;20.37;;;9.00;99.90;;;;;;5030114;28;20291;-71
2024/02/12 06:57:47;;;;;;;31.73;19.83;;;9.00;99.90;;;;;;5025226;28;20448;-68
2024/02/12 07:00:16;;;;;;;33.97;22.77;;;9.00;99.90;;;;;;5029888;28;20478;-68
2024/02/12 07:02:43;;;;;;;37.30;21.17;;;9.00;99.90;;;;;;5029669;28;20182;-65
2024/02/12 07:05:12;;;;;;;34.90;21.40;;;9.00;99.90;;;;;;5030093;28;20999;-68
2024/02/12 07:07:39;;;;;;;31.03;20.83;;;9.00;99.90;;;;;;5028445;28;20577;-67
2024/02/12 07:10:05;;;;;;;31.83;21.03;;;9.00;99.90;;;;;;5029583;28;20432;-71
2024/02/12 07:12:31;;;;;;;36.43;21.60;;;9.00;99.90;;;;;;5029744;28;20439;-71
2024/02/12 07:14:57;;;;;;;34.10;21.40;;;9.00;99.90;;;;;;5027719;28;20445;-71
2024/02/12 07:17:22;;;;;;;37.80;22.60;;;8.90;99.90;;;;;;5028560;28;20186;-70
2024/02/12 07:19:51;;;;;;;34.47;21.40;;;8.90;99.90;;;;;;5029081;28;20190;-71
2024/02/12 07:22:21;;;;;;;38.10;22.57;;;8.90;99.90;;;;;;5029787;28;20197;-69
2024/02/12 07:24:49;;;;;;;38.27;22.70;;;8.90;99.90;;;;;;5030254;28;20641;-65
2024/02/12 07:27:21;;;;;;;33.87;22.63;;;8.90;99.90;;;;;;5029930;28;20448;-70
2024/02/12 07:29:48;;;;;;;34.60;21.20;;;8.90;99.90;;;;;;5027508;28;20433;-68
2024/02/12 07:32:14;;;;;;;33.13;21.43;;;9.00;99.90;;;;;;5025294;28;20436;-66
2024/02/12 07:34:41;;;;;;;34.30;21.40;;;9.00;99.90;;;;;;5026774;28;20422;-73
2024/02/12 07:37:07;;;;;;;35.63;22.50;;;9.00;99.90;;;;;;5029260;28;20979;-70
2024/02/12 07:39:33;;;;;;;37.03;21.40;;;9.00;99.90;;;;;;5026309;28;20447;-68
2024/02/12 07:41:59;;;;;;;36.50;24.20;;;9.00;99.90;;;;;;5026146;28;20444;-68
2024/02/12 07:44:27;;;;;;;33.43;23.00;;;9.00;99.90;;;;;;5028821;28;20246;-70
2024/02/12 07:46:53;;;;;;;32.20;21.70;;;9.00;99.90;;;;;;5027739;28;20970;-66
2024/02/12 07:49:19;;;;;;;34.10;22.00;;;9.10;99.90;;;;;;5029720;28;20428;-69
2024/02/12 07:51:47;;;;;;;35.50;21.50;;;9.10;99.90;;;;;;5028672;28;20268;-68
2024/02/12 07:54:13;;;;;;;30.80;20.43;;;9.10;99.90;;;;;;5031002;28;20468;-67
2024/02/12 07:56:41;;;;;;;34.30;22.70;;;9.10;99.90;;;;;;5030337;28;20948;-69
2024/02/12 07:59:07;;;;;;;35.40;22.00;;;9.10;99.90;;;;;;5028293;28;20441;-70
2024/02/12 08:01:33;;;;;;;34.87;22.63;;;9.10;99.90;;;;;;5027911;28;22606;-64
2024/02/12 08:03:59;;;;;;;30.90;19.33;;;9.10;99.90;;;;;;5032554;28;20221;-68
2024/02/12 08:06:24;;;;;;;34.20;21.03;;;9.00;99.90;;;;;;5032420;28;20446;-67
2024/02/12 08:08:50;;;;;;;34.57;21.33;;;9.10;99.90;;;;;;5033096;28;20197;-71
2024/02/12 08:11:17;;;;;;;31.30;21.20;;;9.10;99.90;;;;;;5032357;28;20190;-67
2024/02/12 08:13:44;;;;;;;34.90;22.17;;;9.10;99.90;;;;;;5032909;28;20850;-67
2024/02/12 08:16:10;;;;;;;28.97;20.37;;;9.10;99.90;;;;;;5015959;28;20785;-67
2024/02/12 08:18:38;;;;;;;30.73;21.00;;;9.10;99.90;;;;;;5031391;28;20444;-70
2024/02/12 08:21:04;;;;;;;26.43;19.37;;;9.10;99.90;;;;;;5032804;28;20190;-67
2024/02/12 08:23:30;;;;;;;32.17;21.07;;;9.10;99.90;;;;;;5030266;28;20569;-69
2024/02/12 08:25:55;;;;;;;31.07;20.40;;;9.10;99.90;;;;;;5032795;28;20511;-70
2024/02/12 08:28:24;;;;;;;28.73;19.30;;;9.10;99.90;;;;;;5031739;28;20188;-72
2024/02/12 08:30:51;;;;;;;31.03;19.37;;;9.10;99.90;;;;;;5032350;28;20594;-69
2024/02/12 08:33:16;;;;;;;30.17;18.77;;;9.00;99.90;;;;;;5032097;28;20979;-74
2024/02/12 08:35:42;;;;;;;30.00;19.47;;;9.10;99.90;;;;;;5032069;28;20443;-67
2024/02/12 08:38:09;;;;;;;27.70;19.33;;;9.10;99.90;;;;;;5032305;28;20193;-68
2024/02/12 08:40:36;;;;;;;29.40;19.80;;;9.10;99.90;;;;;;5030756;28;20189;-71
2024/02/12 08:43:04;;;;;;;30.07;19.27;;;9.10;99.90;;;;;;5033651;28;20966;-70
2024/02/12 08:45:30;;;;;;;29.03;18.43;;;9.10;99.90;;;;;;5032903;28;20866;-68
2024/02/12 08:47:55;;;;;;;30.97;19.03;;;9.20;99.90;;;;;;5015383;28;21037;-68
2024/02/12 08:50:21;;;;;;;30.50;19.63;;;9.20;99.90;;;;;;5033012;28;20435;-72
2024/02/12 08:52:49;;;;;;;31.50;19.30;;;9.20;99.90;;;;;;5032820;28;20590;-68
2024/02/12 08:55:16;;;;;;;29.30;18.83;;;9.20;99.90;;;;;;5032573;28;20197;-69
2024/02/12 08:57:42;;;;;;;27.27;18.50;;;9.20;99.90;;;;;;5029919;28;21050;-70
2024/02/12 09:00:10;;;;;;;28.53;19.43;;;9.20;99.90;;;;;;5032091;28;20432;-70
2024/02/12 09:02:35;;;;;;;28.33;19.57;;;9.20;99.90;;;;;;5030345;28;20949;-69
2024/02/12 09:05:03;;;;;;;30.07;18.80;;;9.20;99.90;;;;;;5030565;28;20449;-68
2024/02/12 09:07:28;;;;;;;28.80;19.50;;;9.20;99.90;;;;;;5029765;28;20425;-70
2024/02/12 09:09:54;;;;;;;33.23;19.50;;;9.20;99.90;;;;;;5029854;28;20490;-70
2024/02/12 09:12:20;;;;;;;29.07;19.03;;;9.10;99.90;;;;;;5030939;28;20515;-68
2024/02/12 09:14:46;;;;;;;30.27;17.97;;;9.20;99.90;;;;;;5029365;28;20945;-68
2024/02/12 09:17:15;;;;;;;28.10;18.83;;;9.20;99.90;;;;;;5063020;28;20449;-67
2024/02/12 09:19:41;;;;;;;31.00;19.00;;;9.20;99.90;;;;;;5032220;28;20193;-70
2024/02/12 09:22:09;;;;;;;32.67;18.70;;;9.20;99.90;;;;;;5032113;28;20441;-67
2024/02/12 09:24:38;;;;;;;33.70;19.00;;;9.20;99.90;;;;;;5031603;28;20501;-73
2024/02/12 09:27:05;;;;;;;27.37;18.77;;;9.20;99.90;;;;;;5030633;28;20424;-69
2024/02/12 09:29:31;;;;;;;30.13;18.30;;;9.20;99.90;;;;;;5030057;28;20791;-68
2024/02/12 09:31:56;;;;;;;30.03;19.00;;;9.30;99.90;;;;;;5031656;28;20443;-72
2024/02/12 09:34:22;;;;;;;29.00;20.13;;;9.20;99.90;;;;;;5031952;28;20205;-74
2024/02/12 09:36:48;;;;;;;31.80;19.90;;;9.30;99.90;;;;;;5029991;28;20189;-70
2024/02/12 09:39:15;;;;;;;29.23;19.00;;;9.30;99.90;;;;;;5032426;28;20221;-66
2024/02/12 09:41:47;;;;;;;27.80;18.03;;;9.30;99.90;;;;;;5029679;28;20273;-71
2024/02/12 09:44:17;;;;;;;26.20;17.27;;;9.30;99.90;;;;;;5032399;28;20829;-71
2024/02/12 09:46:48;;;;;;;27.67;19.17;;;9.30;99.90;;;;;;5031417;28;20475;-71
2024/02/12 09:49:16;;;;;;;31.40;19.07;;;9.30;99.90;;;;;;5030934;28;20433;-65
2024/02/12 09:51:47;;;;;;;25.13;18.63;;;9.20;99.90;;;;;;5031311;28;20776;-68
2024/02/12 09:54:13;;;;;;;29.33;19.30;;;9.20;99.90;;;;;;5032026;28;20971;-69
2024/02/12 09:56:40;;;;;;;27.40;18.33;;;9.30;99.90;;;;;;5027650;28;20838;-64
2024/02/12 09:59:08;;;;;;;26.40;17.47;;;9.30;99.90;;;;;;5028123;28;20425;-66
2024/02/12 10:01:35;;;;;;;26.70;18.07;;;9.30;99.90;;;;;;5029203;28;20487;-68
2024/02/12 10:04:02;;;;;;;25.70;16.53;;;9.30;99.90;;;;;;5030126;28;20483;-69
2024/02/12 10:06:28;;;;;;;26.93;18.97;;;9.30;99.90;;;;;;5029759;28;21006;-70
2024/02/12 10:09:06;;;;;;;22.00;15.37;;;9.30;99.90;;;;;;5031260;28;20433;-70
2024/02/12 10:11:33;;;;;;;23.20;15.43;;;9.30;99.90;;;;;;5031142;28;20792;-68
2024/02/12 10:14:04;;;;;;;28.27;17.63;;;9.30;99.90;;;;;;5030969;28;20428;-70
2024/02/12 10:16:31;;;;;;;22.77;16.70;;;9.40;99.90;;;;;;5028026;28;20517;-69
2024/02/12 10:19:03;;;;;;;34.90;26.50;;;9.40;99.90;;;;;;5031298;28;20537;-68
2024/02/12 10:21:29;;;;;;;25.80;17.60;;;9.40;99.90;;;;;;5030887;28;20516;-66
2024/02/12 10:23:59;;;;;;;24.40;17.63;;;9.40;99.90;;;;;;5030292;28;20464;-70
2024/02/12 10:26:25;;;;;;;23.10;17.20;;;9.50;99.90;;;;;;5029619;28;21065;-66
2024/02/12 10:28:58;;;;;;;17.03;12.00;;;9.50;99.90;;;;;;5029712;28;20516;-67
2024/02/12 10:31:24;;;;;;;11.30;9.53;;;9.50;99.90;;;;;;5030579;28;20190;-71
2024/02/12 10:33:56;;;;;;;11.27;9.23;;;9.50;99.90;;;;;;5030931;28;20425;-70
2024/02/12 10:36:26;;;;;;;11.07;9.70;;;9.50;99.90;;;;;;5030758;28;20432;-71
2024/02/12 10:38:55;;;;;;;13.37;9.93;;;9.50;99.90;;;;;;5030786;28;20436;-73
2024/02/12 10:41:36;;;;;;;13.40;10.43;;;9.50;99.90;;;;;;5030120;28;20432;-70
2024/02/12 10:44:03;;;;;;;14.27;11.30;;;9.50;99.90;;;;;;5029698;28;20469;-67
2024/02/12 10:46:31;;;;;;;18.57;12.60;;;9.50;99.90;;;;;;5029140;28;20445;-72
2024/02/12 10:48:58;;;;;;;14.20;11.00;;;9.50;99.90;;;;;;5029834;28;20902;-71
2024/02/12 10:51:24;;;;;;;16.17;12.80;;;9.40;99.90;;;;;;5029454;28;20436;-70
2024/02/12 10:53:53;;;;;;;17.83;11.87;;;9.40;99.90;;;;;;5031626;28;20435;-71
2024/02/12 10:56:19;;;;;;;19.90;13.67;;;9.40;99.90;;;;;;5030087;28;20465;-69
2024/02/12 10:58:46;;;;;;;19.90;14.20;;;9.50;99.90;;;;;;5030031;28;20425;-67
2024/02/12 11:01:13;;;;;;;18.33;14.60;;;9.50;99.90;;;;;;5029653;28;20686;-67
2024/02/12 11:03:40;;;;;;;18.37;14.50;;;9.60;99.90;;;;;;5030497;28;20473;-70
2024/02/12 11:06:11;;;;;;;19.70;14.20;;;9.60;99.90;;;;;;5028693;28;21267;-70
2024/02/12 11:08:39;;;;;;;22.00;14.70;;;9.70;99.90;;;;;;5030294;28;20502;-70
2024/02/12 11:11:19;;;;;;;17.17;13.10;;;9.70;99.90;;;;;;5029517;28;20506;-72
2024/02/12 11:13:46;;;;;;;18.30;13.83;;;9.80;99.90;;;;;;5030744;28;20448;-70
2024/02/12 11:16:16;;;;;;;22.07;15.13;;;9.80;99.90;;;;;;5028709;28;20441;-66
2024/02/12 11:18:43;;;;;;;17.33;14.07;;;9.80;99.90;;;;;;5030646;28;20433;-68
2024/02/12 11:21:11;;;;;;;19.00;15.07;;;9.80;99.90;;;;;;5029414;28;20432;-67
2024/02/12 11:23:40;;;;;;;22.00;15.30;;;9.80;99.90;;;;;;5029852;28;20463;-70
2024/02/12 11:26:06;;;;;;;21.40;14.83;;;9.80;99.90;;;;;;5028419;28;20985;-68
2024/02/12 11:28:32;;;;;;;19.50;13.43;;;9.80;99.90;;;;;;5031883;28;20428;-74
2024/02/12 11:30:58;;;;;;;17.63;14.37;;;9.80;99.90;;;;;;5033135;28;20435;-71
2024/02/12 11:33:25;;;;;;;17.20;13.27;;;9.70;99.90;;;;;;5032368;28;20425;-70
2024/02/12 11:36:07;;;;;;;21.83;13.70;;;9.70;99.90;;;;;;5031384;28;21332;-64
2024/02/12 11:38:36;;;;;;;18.17;13.20;;;9.70;99.90;;;;;;5020094;28;20455;-64
2024/02/12 11:41:01;;;;;;;18.40;13.20;;;9.70;99.90;;;;;;5032475;28;20429;-66
2024/02/12 11:43:29;;;;;;;21.93;14.40;;;9.70;99.90;;;;;;5031815;28;20492;-68
2024/02/12 11:46:01;;;;;;;19.20;13.23;;;9.70;99.90;;;;;;5032686;28;20186;-65
2024/02/12 11:48:28;;;;;;;17.97;12.43;;;9.70;99.90;;;;;;5032478;28;20436;-70
2024/02/12 11:50:55;;;;;;;15.30;12.00;;;9.60;99.90;;;;;;5033493;28;20429;-68
2024/02/12 11:53:22;;;;;;;17.57;13.30;;;9.70;99.90;;;;;;5033112;28;20570;-69
2024/02/12 11:55:48;;;;;;;22.57;12.50;;;9.70;99.90;;;;;;5033135;28;20440;-67
2024/02/12 11:58:17;;;;;;;16.53;13.10;;;9.70;99.90;;;;;;5033048;28;20182;-67
2024/02/12 12:00:44;;;;;;;16.70;13.07;;;9.80;99.90;;;;;;5031929;28;20436;-68
2024/02/12 12:03:10;;;;;;;19.67;12.57;;;9.80;99.90;;;;;;5031905;28;20549;-69
2024/02/12 12:05:38;;;;;;;16.10;12.37;;;9.80;99.90;;;;;;5032391;28;20523;-70
2024/02/12 12:08:06;;;;;;;18.33;12.40;;;9.90;99.90;;;;;;5032667;28;20861;-71
2024/02/12 12:10:34;;;;;;;17.33;11.70;;;9.90;99.90;;;;;;5031444;28;20461;-69
2024/02/12 12:13:01;;;;;;;16.47;11.23;;;9.90;99.90;;;;;;5033147;28;20839;-65
2024/02/12 12:15:28;;;;;;;17.90;11.37;;;9.90;99.90;;;;;;5031409;28;20467;-71
2024/02/12 12:17:54;;;;;;;12.70;10.23;;;9.90;99.90;;;;;;5031655;28;20417;-69
2024/02/12 12:20:20;;;;;;;15.80;10.80;;;9.90;99.90;;;;;;5032619;28;20421;-69
2024/02/12 12:22:47;;;;;;;14.50;10.37;;;9.90;99.90;;;;;;5031342;28;20505;-70
2024/02/12 12:25:14;;;;;;;13.67;9.70;;;9.90;99.90;;;;;;5032794;28;20464;-72
2024/02/12 12:27:41;;;;;;;11.33;10.07;;;9.90;99.90;;;;;;5030718;28;20436;-73
2024/02/12 12:30:14;;;;;;;10.90;8.37;;;10.00;99.90;;;;;;5031451;28;20428;-70
2024/02/12 12:32:41;;;;;;;8.63;7.73;;;10.10;99.90;;;;;;5031824;28;20432;-67
2024/02/12 12:35:07;;;;;;;11.30;7.53;;;10.20;99.90;;;;;;5031868;28;20457;-71
2024/02/12 12:37:35;;;;;;;7.50;6.60;;;10.40;99.90;;;;;;5031785;28;20580;-73
2024/02/12 12:40:00;;;;;;;7.40;6.10;;;10.50;99.90;;;;;;5031183;28;20440;-69
2024/02/12 12:42:26;;;;;;;8.70;7.03;;;10.60;99.90;;;;;;5032427;28;20422;-65
2024/02/12 12:44:52;;;;;;;7.57;6.87;;;10.60;99.90;;;;;;5031382;28;20233;-69
2024/02/12 12:47:20;;;;;;;7.70;5.87;;;10.70;99.90;;;;;;5030766;28;20205;-68
2024/02/12 12:49:46;;;;;;;7.67;6.80;;;10.70;99.90;;;;;;5029991;28;20182;-68
2024/02/12 12:52:12;;;;;;;10.43;7.10;;;10.70;99.90;;;;;;5031151;28;20439;-68